sensor_id;sensor_type;location;lat;lon;timestamp;P1;durP1;ratioP1;P2;durP2;ratioP2
8536;SDS011;4306;50.210;10.628;2023-02-10T00:01:01;35.80;;;19.03;;
8536;SDS011;4306;50.210;10.628;2023-02-10T00:03:28;32.10;;;16.93;;
8536;SDS011;4306;50.210;10.628;2023-02-10T00:05:55;31.40;;;14.13;;
8536;SDS011;4306;50.210;10.628;2023-02-10T00:08:22;27.50;;;15.33;;
8536;SDS011;4306;50.210;10.628;2023-02-10T00:10:49;25.50;;;14.40;;
8536;SDS011;4306;50.210;10.628;2023-02-10T00:13:16;28.43;;;13.90;;
8536;SDS011;4306;50.210;10.628;2023-02-10T00:15:43;28.73;;;14.40;;
8536;SDS011;4306;50.210;10.628;2023-02-10T00:18:11;31.40;;;14.30;;
8536;SDS011;4306;50.210;10.628;2023-02-10T00:20:38;27.30;;;15.17;;
8536;SDS011;4306;50.210;10.628;2023-02-10T00:23:05;33.20;;;15.50;;
8536;SDS011;4306;50.210;10.628;2023-02-10T00:25:32;30.17;;;15.73;;
8536;SDS011;4306;50.210;10.628;2023-02-10T00:28:00;33.57;;;17.10;;
8536;SDS011;4306;50.210;10.628;2023-02-10T00:30:27;33.23;;;16.20;;
8536;SDS011;4306;50.210;10.628;2023-02-10T00:32:54;32.10;;;15.77;;
8536;SDS011;4306;50.210;10.628;2023-02-10T00:35:23;32.70;;;17.17;;
8536;SDS011;4306;50.210;10.628;2023-02-10T00:37:51;33.27;;;15.60;;
8536;SDS011;4306;50.210;10.628;2023-02-10T00:40:18;28.53;;;14.30;;
8536;SDS011;4306;50.210;10.628;2023-02-10T00:42:45;30.87;;;15.53;;
8536;SDS011;4306;50.210;10.628;2023-02-10T00:45:11;30.90;;;14.87;;
8536;SDS011;4306;50.210;10.628;2023-02-10T00:47:39;33.67;;;15.83;;
8536;SDS011;4306;50.210;10.628;2023-02-10T00:50:06;28.30;;;15.10;;
8536;SDS011;4306;50.210;10.628;2023-02-10T00:52:34;31.37;;;15.93;;
8536;SDS011;4306;50.210;10.628;2023-02-10T00:55:03;31.60;;;16.13;;
8536;SDS011;4306;50.210;10.628;2023-02-10T00:57:30;33.97;;;16.93;;
8536;SDS011;4306;50.210;10.628;2023-02-10T00:59:57;31.47;;;15.97;;
8536;SDS011;4306;50.210;10.628;2023-02-10T01:02:24;36.30;;;16.53;;
8536;SDS011;4306;50.210;10.628;2023-02-10T01:04:51;31.93;;;15.93;;
8536;SDS011;4306;50.210;10.628;2023-02-10T01:07:17;29.57;;;14.13;;
8536;SDS011;4306;50.210;10.628;2023-02-10T01:09:46;28.80;;;14.90;;
8536;SDS011;4306;50.210;10.628;2023-02-10T01:12:12;28.80;;;14.97;;
8536;SDS011;4306;50.210;10.628;2023-02-10T01:14:39;33.20;;;15.90;;
8536;SDS011;4306;50.210;10.628;2023-02-10T01:17:06;33.10;;;16.43;;
8536;SDS011;4306;50.210;10.628;2023-02-10T01:19:33;29.53;;;15.60;;
8536;SDS011;4306;50.210;10.628;2023-02-10T01:22:00;28.67;;;14.33;;
8536;SDS011;4306;50.210;10.628;2023-02-10T01:24:27;30.10;;;14.30;;
8536;SDS011;4306;50.210;10.628;2023-02-10T01:26:55;28.93;;;13.50;;
8536;SDS011;4306;50.210;10.628;2023-02-10T01:29:22;29.93;;;14.47;;
8536;SDS011;4306;50.210;10.628;2023-02-10T01:31:49;33.33;;;16.07;;
8536;SDS011;4306;50.210;10.628;2023-02-10T01:34:16;31.43;;;16.40;;
8536;SDS011;4306;50.210;10.628;2023-02-10T01:36:43;35.47;;;16.60;;
8536;SDS011;4306;50.210;10.628;2023-02-10T01:39:11;26.93;;;13.37;;
8536;SDS011;4306;50.210;10.628;2023-02-10T01:41:38;29.13;;;15.40;;
8536;SDS011;4306;50.210;10.628;2023-02-10T01:44:55;29.17;;;14.80;;
8536;SDS011;4306;50.210;10.628;2023-02-10T01:47:11;32.17;;;14.63;;
8536;SDS011;4306;50.210;10.628;2023-02-10T01:49:40;28.47;;;14.63;;
8536;SDS011;4306;50.210;10.628;2023-02-10T01:52:11;35.27;;;19.43;;
8536;SDS011;4306;50.210;10.628;2023-02-10T01:54:42;31.20;;;16.67;;
8536;SDS011;4306;50.210;10.628;2023-02-10T01:57:11;31.20;;;15.07;;
8536;SDS011;4306;50.210;10.628;2023-02-10T01:59:40;31.53;;;16.80;;
8536;SDS011;4306;50.210;10.628;2023-02-10T02:02:08;29.50;;;15.83;;
8536;SDS011;4306;50.210;10.628;2023-02-10T02:04:49;26.20;;;14.17;;
8536;SDS011;4306;50.210;10.628;2023-02-10T02:07:17;29.43;;;15.73;;
8536;SDS011;4306;50.210;10.628;2023-02-10T02:09:51;33.77;;;15.77;;
8536;SDS011;4306;50.210;10.628;2023-02-10T02:12:20;33.23;;;15.03;;
8536;SDS011;4306;50.210;10.628;2023-02-10T02:14:55;31.23;;;15.20;;
8536;SDS011;4306;50.210;10.628;2023-02-10T02:17:28;28.40;;;14.63;;
8536;SDS011;4306;50.210;10.628;2023-02-10T02:23:12;26.83;;;14.23;;
8536;SDS011;4306;50.210;10.628;2023-02-10T02:25:55;34.93;;;15.07;;
8536;SDS011;4306;50.210;10.628;2023-02-10T02:28:38;29.93;;;15.13;;
8536;SDS011;4306;50.210;10.628;2023-02-10T02:34:10;28.53;;;14.57;;
8536;SDS011;4306;50.210;10.628;2023-02-10T02:36:41;28.73;;;14.37;;
8536;SDS011;4306;50.210;10.628;2023-02-10T02:39:11;26.57;;;14.83;;
8536;SDS011;4306;50.210;10.628;2023-02-10T02:41:37;28.97;;;15.10;;
8536;SDS011;4306;50.210;10.628;2023-02-10T02:44:04;30.37;;;15.27;;
8536;SDS011;4306;50.210;10.628;2023-02-10T02:46:34;29.97;;;15.40;;
8536;SDS011;4306;50.210;10.628;2023-02-10T02:49:11;29.47;;;15.27;;
8536;SDS011;4306;50.210;10.628;2023-02-10T02:51:47;32.70;;;15.20;;
8536;SDS011;4306;50.210;10.628;2023-02-10T02:54:23;31.20;;;16.67;;
8536;SDS011;4306;50.210;10.628;2023-02-10T02:56:54;33.20;;;15.43;;
8536;SDS011;4306;50.210;10.628;2023-02-10T02:59:29;34.60;;;16.53;;
8536;SDS011;4306;50.210;10.628;2023-02-10T03:02:01;28.13;;;14.47;;
8536;SDS011;4306;50.210;10.628;2023-02-10T03:04:32;31.53;;;15.57;;
8536;SDS011;4306;50.210;10.628;2023-02-10T03:06:59;30.90;;;16.57;;
8536;SDS011;4306;50.210;10.628;2023-02-10T03:09:27;31.07;;;16.50;;
8536;SDS011;4306;50.210;10.628;2023-02-10T03:11:54;30.57;;;15.63;;
8536;SDS011;4306;50.210;10.628;2023-02-10T03:14:21;29.60;;;14.93;;
8536;SDS011;4306;50.210;10.628;2023-02-10T03:16:48;30.07;;;14.60;;
8536;SDS011;4306;50.210;10.628;2023-02-10T03:19:15;31.10;;;14.90;;
8536;SDS011;4306;50.210;10.628;2023-02-10T03:21:43;34.33;;;15.73;;
8536;SDS011;4306;50.210;10.628;2023-02-10T03:24:12;33.83;;;16.07;;
8536;SDS011;4306;50.210;10.628;2023-02-10T03:26:39;29.23;;;15.67;;
8536;SDS011;4306;50.210;10.628;2023-02-10T03:29:05;31.67;;;15.67;;
8536;SDS011;4306;50.210;10.628;2023-02-10T03:31:33;32.37;;;16.17;;
8536;SDS011;4306;50.210;10.628;2023-02-10T03:33:59;32.93;;;16.43;;
8536;SDS011;4306;50.210;10.628;2023-02-10T03:36:26;32.50;;;15.67;;
8536;SDS011;4306;50.210;10.628;2023-02-10T03:38:55;28.20;;;15.27;;
8536;SDS011;4306;50.210;10.628;2023-02-10T03:41:21;31.43;;;15.60;;
8536;SDS011;4306;50.210;10.628;2023-02-10T03:43:48;31.50;;;17.20;;
8536;SDS011;4306;50.210;10.628;2023-02-10T03:46:15;33.30;;;17.70;;
8536;SDS011;4306;50.210;10.628;2023-02-10T03:48:42;38.73;;;17.20;;
8536;SDS011;4306;50.210;10.628;2023-02-10T03:51:09;36.77;;;16.93;;
8536;SDS011;4306;50.210;10.628;2023-02-10T03:53:36;38.43;;;17.83;;
8536;SDS011;4306;50.210;10.628;2023-02-10T03:56:05;36.73;;;18.37;;
8536;SDS011;4306;50.210;10.628;2023-02-10T03:58:32;33.37;;;15.63;;
8536;SDS011;4306;50.210;10.628;2023-02-10T04:00:59;37.03;;;17.67;;
8536;SDS011;4306;50.210;10.628;2023-02-10T04:03:33;31.87;;;16.70;;
8536;SDS011;4306;50.210;10.628;2023-02-10T04:06:00;30.90;;;15.80;;
8536;SDS011;4306;50.210;10.628;2023-02-10T04:08:27;30.80;;;15.37;;
8536;SDS011;4306;50.210;10.628;2023-02-10T04:10:53;30.53;;;16.03;;
8536;SDS011;4306;50.210;10.628;2023-02-10T04:13:22;30.73;;;16.90;;
8536;SDS011;4306;50.210;10.628;2023-02-10T04:15:48;37.13;;;16.20;;
8536;SDS011;4306;50.210;10.628;2023-02-10T04:18:24;33.83;;;16.57;;
8536;SDS011;4306;50.210;10.628;2023-02-10T04:20:51;37.27;;;16.77;;
8536;SDS011;4306;50.210;10.628;2023-02-10T04:23:18;34.13;;;17.07;;
8536;SDS011;4306;50.210;10.628;2023-02-10T04:25:45;33.87;;;16.43;;
8536;SDS011;4306;50.210;10.628;2023-02-10T04:28:12;31.20;;;16.60;;
8536;SDS011;4306;50.210;10.628;2023-02-10T04:30:40;30.37;;;16.30;;
8536;SDS011;4306;50.210;10.628;2023-02-10T04:33:07;37.73;;;19.10;;
8536;SDS011;4306;50.210;10.628;2023-02-10T04:35:33;32.03;;;16.40;;
8536;SDS011;4306;50.210;10.628;2023-02-10T04:38:00;33.70;;;17.47;;
8536;SDS011;4306;50.210;10.628;2023-02-10T04:40:29;34.13;;;18.10;;
8536;SDS011;4306;50.210;10.628;2023-02-10T04:42:56;36.60;;;18.07;;
8536;SDS011;4306;50.210;10.628;2023-02-10T04:45:25;36.83;;;18.83;;
8536;SDS011;4306;50.210;10.628;2023-02-10T04:47:53;35.30;;;16.80;;
8536;SDS011;4306;50.210;10.628;2023-02-10T04:50:20;37.13;;;18.30;;
8536;SDS011;4306;50.210;10.628;2023-02-10T04:52:47;37.50;;;18.17;;
8536;SDS011;4306;50.210;10.628;2023-02-10T04:55:14;32.80;;;16.33;;
8536;SDS011;4306;50.210;10.628;2023-02-10T04:57:40;37.87;;;17.63;;
8536;SDS011;4306;50.210;10.628;2023-02-10T05:00:08;36.53;;;18.33;;
8536;SDS011;4306;50.210;10.628;2023-02-10T05:02:35;35.23;;;18.23;;
8536;SDS011;4306;50.210;10.628;2023-02-10T05:05:04;39.47;;;19.10;;
8536;SDS011;4306;50.210;10.628;2023-02-10T05:07:31;36.17;;;19.53;;
8536;SDS011;4306;50.210;10.628;2023-02-10T05:09:58;42.47;;;21.27;;
8536;SDS011;4306;50.210;10.628;2023-02-10T05:12:25;37.07;;;18.60;;
8536;SDS011;4306;50.210;10.628;2023-02-10T05:14:51;34.00;;;18.10;;
8536;SDS011;4306;50.210;10.628;2023-02-10T05:17:18;41.53;;;18.30;;
8536;SDS011;4306;50.210;10.628;2023-02-10T05:19:45;36.80;;;17.90;;
8536;SDS011;4306;50.210;10.628;2023-02-10T05:22:13;39.97;;;19.70;;
8536;SDS011;4306;50.210;10.628;2023-02-10T05:24:40;35.47;;;18.57;;
8536;SDS011;4306;50.210;10.628;2023-02-10T05:27:07;39.87;;;18.63;;
8536;SDS011;4306;50.210;10.628;2023-02-10T05:29:34;40.33;;;21.43;;
8536;SDS011;4306;50.210;10.628;2023-02-10T05:32:01;40.97;;;21.23;;
8536;SDS011;4306;50.210;10.628;2023-02-10T05:34:28;41.70;;;21.43;;
8536;SDS011;4306;50.210;10.628;2023-02-10T05:36:55;44.50;;;20.13;;
8536;SDS011;4306;50.210;10.628;2023-02-10T05:39:23;40.37;;;20.73;;
8536;SDS011;4306;50.210;10.628;2023-02-10T05:41:51;41.80;;;20.30;;
8536;SDS011;4306;50.210;10.628;2023-02-10T05:44:19;43.23;;;21.23;;
8536;SDS011;4306;50.210;10.628;2023-02-10T05:46:46;47.23;;;21.83;;
8536;SDS011;4306;50.210;10.628;2023-02-10T05:49:13;48.67;;;22.33;;
8536;SDS011;4306;50.210;10.628;2023-02-10T05:51:40;38.80;;;21.17;;
8536;SDS011;4306;50.210;10.628;2023-02-10T05:54:07;40.13;;;20.33;;
8536;SDS011;4306;50.210;10.628;2023-02-10T05:56:36;41.83;;;20.23;;
8536;SDS011;4306;50.210;10.628;2023-02-10T05:59:02;39.77;;;20.37;;
8536;SDS011;4306;50.210;10.628;2023-02-10T06:01:29;40.17;;;20.27;;
8536;SDS011;4306;50.210;10.628;2023-02-10T06:03:56;36.37;;;18.67;;
8536;SDS011;4306;50.210;10.628;2023-02-10T06:06:23;38.73;;;19.43;;
8536;SDS011;4306;50.210;10.628;2023-02-10T06:08:50;41.37;;;19.47;;
8536;SDS011;4306;50.210;10.628;2023-02-10T06:11:17;36.10;;;19.20;;
8536;SDS011;4306;50.210;10.628;2023-02-10T06:13:45;35.30;;;18.80;;
8536;SDS011;4306;50.210;10.628;2023-02-10T06:16:12;42.60;;;19.13;;
8536;SDS011;4306;50.210;10.628;2023-02-10T06:18:39;35.70;;;19.43;;
8536;SDS011;4306;50.210;10.628;2023-02-10T06:21:07;37.80;;;20.53;;
8536;SDS011;4306;50.210;10.628;2023-02-10T06:23:34;40.40;;;21.53;;
8536;SDS011;4306;50.210;10.628;2023-02-10T06:26:01;40.00;;;20.73;;
8536;SDS011;4306;50.210;10.628;2023-02-10T06:28:28;35.27;;;19.27;;
8536;SDS011;4306;50.210;10.628;2023-02-10T06:30:56;40.90;;;20.43;;
8536;SDS011;4306;50.210;10.628;2023-02-10T06:33:24;37.70;;;19.27;;
8536;SDS011;4306;50.210;10.628;2023-02-10T06:35:51;37.83;;;19.27;;
8536;SDS011;4306;50.210;10.628;2023-02-10T06:38:17;37.60;;;19.47;;
8536;SDS011;4306;50.210;10.628;2023-02-10T06:40:44;38.33;;;20.13;;
8536;SDS011;4306;50.210;10.628;2023-02-10T06:43:11;37.13;;;19.27;;
8536;SDS011;4306;50.210;10.628;2023-02-10T06:45:38;34.63;;;19.20;;
8536;SDS011;4306;50.210;10.628;2023-02-10T06:48:06;34.93;;;19.10;;
8536;SDS011;4306;50.210;10.628;2023-02-10T06:50:33;37.13;;;19.93;;
8536;SDS011;4306;50.210;10.628;2023-02-10T06:53:00;39.50;;;20.57;;
8536;SDS011;4306;50.210;10.628;2023-02-10T06:55:27;45.20;;;24.13;;
8536;SDS011;4306;50.210;10.628;2023-02-10T06:57:57;44.17;;;22.67;;
8536;SDS011;4306;50.210;10.628;2023-02-10T07:00:25;43.80;;;24.60;;
8536;SDS011;4306;50.210;10.628;2023-02-10T07:02:52;41.07;;;23.03;;
8536;SDS011;4306;50.210;10.628;2023-02-10T07:05:20;45.87;;;23.63;;
8536;SDS011;4306;50.210;10.628;2023-02-10T07:07:47;45.33;;;22.93;;
8536;SDS011;4306;50.210;10.628;2023-02-10T07:10:15;43.67;;;22.80;;
8536;SDS011;4306;50.210;10.628;2023-02-10T07:12:42;54.90;;;26.90;;
8536;SDS011;4306;50.210;10.628;2023-02-10T07:15:11;43.03;;;23.37;;
8536;SDS011;4306;50.210;10.628;2023-02-10T07:17:39;43.27;;;23.07;;
8536;SDS011;4306;50.210;10.628;2023-02-10T07:20:06;45.93;;;23.97;;
8536;SDS011;4306;50.210;10.628;2023-02-10T07:22:34;38.23;;;19.93;;
8536;SDS011;4306;50.210;10.628;2023-02-10T07:25:02;38.43;;;20.47;;
8536;SDS011;4306;50.210;10.628;2023-02-10T07:27:29;39.43;;;20.40;;
8536;SDS011;4306;50.210;10.628;2023-02-10T07:29:56;39.20;;;20.40;;
8536;SDS011;4306;50.210;10.628;2023-02-10T07:32:23;47.33;;;24.13;;
8536;SDS011;4306;50.210;10.628;2023-02-10T07:34:50;42.03;;;23.27;;
8536;SDS011;4306;50.210;10.628;2023-02-10T07:37:16;38.83;;;20.03;;
8536;SDS011;4306;50.210;10.628;2023-02-10T07:39:45;40.70;;;22.27;;
8536;SDS011;4306;50.210;10.628;2023-02-10T07:42:12;44.00;;;22.27;;
8536;SDS011;4306;50.210;10.628;2023-02-10T07:44:38;41.90;;;21.33;;
8536;SDS011;4306;50.210;10.628;2023-02-10T07:47:05;38.87;;;21.80;;
8536;SDS011;4306;50.210;10.628;2023-02-10T07:49:32;42.03;;;21.70;;
8536;SDS011;4306;50.210;10.628;2023-02-10T07:51:59;38.73;;;19.53;;
8536;SDS011;4306;50.210;10.628;2023-02-10T07:54:26;43.07;;;21.73;;
8536;SDS011;4306;50.210;10.628;2023-02-10T07:56:54;36.50;;;20.40;;
8536;SDS011;4306;50.210;10.628;2023-02-10T07:59:22;51.87;;;24.97;;
8536;SDS011;4306;50.210;10.628;2023-02-10T08:01:49;45.60;;;24.73;;
8536;SDS011;4306;50.210;10.628;2023-02-10T08:04:16;53.27;;;30.63;;
8536;SDS011;4306;50.210;10.628;2023-02-10T08:06:43;49.70;;;26.33;;
8536;SDS011;4306;50.210;10.628;2023-02-10T08:09:10;61.57;;;31.60;;
8536;SDS011;4306;50.210;10.628;2023-02-10T08:11:37;42.40;;;22.57;;
8536;SDS011;4306;50.210;10.628;2023-02-10T08:14:05;39.77;;;21.67;;
8536;SDS011;4306;50.210;10.628;2023-02-10T08:16:32;40.47;;;21.83;;
8536;SDS011;4306;50.210;10.628;2023-02-10T08:18:58;40.67;;;21.67;;
8536;SDS011;4306;50.210;10.628;2023-02-10T08:21:25;38.17;;;21.80;;
8536;SDS011;4306;50.210;10.628;2023-02-10T08:23:52;44.07;;;23.20;;
8536;SDS011;4306;50.210;10.628;2023-02-10T08:26:22;42.97;;;23.07;;
8536;SDS011;4306;50.210;10.628;2023-02-10T08:28:50;43.03;;;24.03;;
8536;SDS011;4306;50.210;10.628;2023-02-10T08:31:21;42.13;;;23.60;;
8536;SDS011;4306;50.210;10.628;2023-02-10T08:33:48;46.23;;;25.43;;
8536;SDS011;4306;50.210;10.628;2023-02-10T08:36:16;48.40;;;26.17;;
8536;SDS011;4306;50.210;10.628;2023-02-10T08:38:45;52.27;;;27.77;;
8536;SDS011;4306;50.210;10.628;2023-02-10T08:41:13;78.07;;;36.70;;
8536;SDS011;4306;50.210;10.628;2023-02-10T08:43:41;70.97;;;33.13;;
8536;SDS011;4306;50.210;10.628;2023-02-10T08:46:09;57.00;;;29.37;;
8536;SDS011;4306;50.210;10.628;2023-02-10T08:48:37;41.50;;;23.07;;
8536;SDS011;4306;50.210;10.628;2023-02-10T08:51:05;40.20;;;22.83;;
8536;SDS011;4306;50.210;10.628;2023-02-10T08:53:33;42.37;;;21.70;;
8536;SDS011;4306;50.210;10.628;2023-02-10T08:56:01;40.67;;;23.63;;
8536;SDS011;4306;50.210;10.628;2023-02-10T08:58:30;46.50;;;26.07;;
8536;SDS011;4306;50.210;10.628;2023-02-10T09:00:57;46.10;;;26.37;;
8536;SDS011;4306;50.210;10.628;2023-02-10T09:03:24;114.80;;;52.47;;
8536;SDS011;4306;50.210;10.628;2023-02-10T09:05:53;43.27;;;25.17;;
8536;SDS011;4306;50.210;10.628;2023-02-10T09:08:20;64.20;;;36.30;;
8536;SDS011;4306;50.210;10.628;2023-02-10T09:10:47;48.07;;;27.30;;
8536;SDS011;4306;50.210;10.628;2023-02-10T09:13:14;42.27;;;23.77;;
8536;SDS011;4306;50.210;10.628;2023-02-10T09:15:41;42.57;;;23.20;;
8536;SDS011;4306;50.210;10.628;2023-02-10T09:18:08;48.97;;;25.70;;
8536;SDS011;4306;50.210;10.628;2023-02-10T09:20:36;42.00;;;25.37;;
8536;SDS011;4306;50.210;10.628;2023-02-10T09:23:04;46.90;;;22.93;;
8536;SDS011;4306;50.210;10.628;2023-02-10T09:25:32;43.03;;;24.47;;
8536;SDS011;4306;50.210;10.628;2023-02-10T09:27:59;45.07;;;25.57;;
8536;SDS011;4306;50.210;10.628;2023-02-10T09:30:26;42.33;;;24.23;;
8536;SDS011;4306;50.210;10.628;2023-02-10T09:32:54;45.50;;;25.87;;
8536;SDS011;4306;50.210;10.628;2023-02-10T09:35:21;44.83;;;24.90;;
8536;SDS011;4306;50.210;10.628;2023-02-10T09:37:48;48.43;;;26.03;;
8536;SDS011;4306;50.210;10.628;2023-02-10T09:40:17;39.30;;;22.70;;
8536;SDS011;4306;50.210;10.628;2023-02-10T09:42:55;45.73;;;24.87;;
8536;SDS011;4306;50.210;10.628;2023-02-10T09:45:33;47.00;;;24.47;;
8536;SDS011;4306;50.210;10.628;2023-02-10T09:48:06;45.47;;;25.67;;
8536;SDS011;4306;50.210;10.628;2023-02-10T09:50:48;40.40;;;23.83;;
8536;SDS011;4306;50.210;10.628;2023-02-10T09:53:21;45.73;;;25.10;;
8536;SDS011;4306;50.210;10.628;2023-02-10T09:55:52;38.77;;;23.17;;
8536;SDS011;4306;50.210;10.628;2023-02-10T09:58:24;41.87;;;23.40;;
8536;SDS011;4306;50.210;10.628;2023-02-10T10:00:57;42.30;;;25.30;;
8536;SDS011;4306;50.210;10.628;2023-02-10T10:03:28;42.13;;;25.60;;
8536;SDS011;4306;50.210;10.628;2023-02-10T10:06:06;42.43;;;24.30;;
8536;SDS011;4306;50.210;10.628;2023-02-10T10:08:47;45.73;;;24.97;;
8536;SDS011;4306;50.210;10.628;2023-02-10T10:11:26;44.23;;;25.30;;
8536;SDS011;4306;50.210;10.628;2023-02-10T10:13:57;40.93;;;23.33;;
8536;SDS011;4306;50.210;10.628;2023-02-10T10:16:30;47.73;;;23.40;;
8536;SDS011;4306;50.210;10.628;2023-02-10T10:19:11;43.67;;;23.93;;
8536;SDS011;4306;50.210;10.628;2023-02-10T10:21:51;46.30;;;25.90;;
8536;SDS011;4306;50.210;10.628;2023-02-10T10:24:28;43.73;;;22.60;;
8536;SDS011;4306;50.210;10.628;2023-02-10T10:27:10;41.07;;;22.70;;
8536;SDS011;4306;50.210;10.628;2023-02-10T10:29:45;41.27;;;23.00;;
8536;SDS011;4306;50.210;10.628;2023-02-10T10:32:18;42.60;;;25.00;;
8536;SDS011;4306;50.210;10.628;2023-02-10T10:34:54;47.00;;;26.13;;
8536;SDS011;4306;50.210;10.628;2023-02-10T10:37:22;39.60;;;24.73;;
8536;SDS011;4306;50.210;10.628;2023-02-10T10:39:52;44.27;;;25.13;;
8536;SDS011;4306;50.210;10.628;2023-02-10T10:42:24;50.57;;;25.67;;
8536;SDS011;4306;50.210;10.628;2023-02-10T10:44:55;46.40;;;25.80;;
8536;SDS011;4306;50.210;10.628;2023-02-10T10:47:28;43.73;;;26.47;;
8536;SDS011;4306;50.210;10.628;2023-02-10T10:50:02;43.43;;;23.13;;
8536;SDS011;4306;50.210;10.628;2023-02-10T10:52:31;44.97;;;25.83;;
8536;SDS011;4306;50.210;10.628;2023-02-10T10:55:01;44.23;;;24.57;;
8536;SDS011;4306;50.210;10.628;2023-02-10T10:57:30;45.93;;;25.50;;
8536;SDS011;4306;50.210;10.628;2023-02-10T11:00:03;47.70;;;26.13;;
8536;SDS011;4306;50.210;10.628;2023-02-10T11:02:39;50.23;;;26.63;;
8536;SDS011;4306;50.210;10.628;2023-02-10T11:05:16;47.43;;;25.83;;
8536;SDS011;4306;50.210;10.628;2023-02-10T11:07:47;50.47;;;27.03;;
8536;SDS011;4306;50.210;10.628;2023-02-10T11:10:20;48.90;;;27.13;;
8536;SDS011;4306;50.210;10.628;2023-02-10T11:12:51;46.77;;;26.73;;
8536;SDS011;4306;50.210;10.628;2023-02-10T11:15:27;51.00;;;27.47;;
8536;SDS011;4306;50.210;10.628;2023-02-10T11:17:57;50.70;;;28.37;;
8536;SDS011;4306;50.210;10.628;2023-02-10T11:20:27;53.67;;;29.80;;
8536;SDS011;4306;50.210;10.628;2023-02-10T11:22:56;58.57;;;28.63;;
8536;SDS011;4306;50.210;10.628;2023-02-10T11:25:25;50.17;;;28.60;;
8536;SDS011;4306;50.210;10.628;2023-02-10T11:27:56;46.67;;;26.13;;
8536;SDS011;4306;50.210;10.628;2023-02-10T11:30:25;52.40;;;28.53;;
8536;SDS011;4306;50.210;10.628;2023-02-10T11:32:53;49.47;;;28.30;;
8536;SDS011;4306;50.210;10.628;2023-02-10T11:35:21;52.00;;;27.97;;
8536;SDS011;4306;50.210;10.628;2023-02-10T11:37:51;52.73;;;28.97;;
8536;SDS011;4306;50.210;10.628;2023-02-10T11:40:20;52.77;;;29.07;;
8536;SDS011;4306;50.210;10.628;2023-02-10T11:42:50;54.47;;;27.80;;
8536;SDS011;4306;50.210;10.628;2023-02-10T11:45:20;53.00;;;28.03;;
8536;SDS011;4306;50.210;10.628;2023-02-10T11:47:58;55.75;;;29.98;;
8536;SDS011;4306;50.210;10.628;2023-02-10T11:50:28;54.90;;;26.83;;
8536;SDS011;4306;50.210;10.628;2023-02-10T11:52:56;49.37;;;26.43;;
8536;SDS011;4306;50.210;10.628;2023-02-10T11:55:24;52.28;;;27.70;;
8536;SDS011;4306;50.210;10.628;2023-02-10T11:58:00;50.80;;;26.10;;
8536;SDS011;4306;50.210;10.628;2023-02-10T12:00:59;61.27;;;30.00;;
8536;SDS011;4306;50.210;10.628;2023-02-10T12:03:40;48.83;;;26.87;;
8536;SDS011;4306;50.210;10.628;2023-02-10T12:06:17;51.60;;;27.55;;
8536;SDS011;4306;50.210;10.628;2023-02-10T12:08:51;56.20;;;28.33;;
8536;SDS011;4306;50.210;10.628;2023-02-10T12:11:24;54.90;;;26.60;;
8536;SDS011;4306;50.210;10.628;2023-02-10T12:13:57;50.97;;;26.10;;
8536;SDS011;4306;50.210;10.628;2023-02-10T12:16:35;54.83;;;27.43;;
8536;SDS011;4306;50.210;10.628;2023-02-10T12:19:09;50.23;;;26.53;;
8536;SDS011;4306;50.210;10.628;2023-02-10T12:21:57;68.40;;;32.07;;
8536;SDS011;4306;50.210;10.628;2023-02-10T12:27:29;49.70;;;25.47;;
8536;SDS011;4306;50.210;10.628;2023-02-10T12:30:05;53.88;;;30.30;;
8536;SDS011;4306;50.210;10.628;2023-02-10T12:32:44;66.38;;;32.45;;
8536;SDS011;4306;50.210;10.628;2023-02-10T12:35:22;53.67;;;27.75;;
8536;SDS011;4306;50.210;10.628;2023-02-10T12:38:00;53.97;;;27.73;;
8536;SDS011;4306;50.210;10.628;2023-02-10T12:40:42;74.37;;;37.83;;
8536;SDS011;4306;50.210;10.628;2023-02-10T12:43:23;47.73;;;24.80;;
8536;SDS011;4306;50.210;10.628;2023-02-10T12:46:10;56.93;;;31.30;;
8536;SDS011;4306;50.210;10.628;2023-02-10T12:48:48;86.47;;;43.83;;
8536;SDS011;4306;50.210;10.628;2023-02-10T12:51:33;79.97;;;37.13;;
8536;SDS011;4306;50.210;10.628;2023-02-10T12:54:11;54.83;;;27.57;;
8536;SDS011;4306;50.210;10.628;2023-02-10T12:56:44;48.37;;;26.50;;
8536;SDS011;4306;50.210;10.628;2023-02-10T12:59:17;62.80;;;28.13;;
8536;SDS011;4306;50.210;10.628;2023-02-10T13:01:48;58.77;;;27.23;;
8536;SDS011;4306;50.210;10.628;2023-02-10T13:04:20;61.10;;;27.83;;
8536;SDS011;4306;50.210;10.628;2023-02-10T13:06:51;52.53;;;27.57;;
8536;SDS011;4306;50.210;10.628;2023-02-10T13:09:24;51.70;;;25.58;;
8536;SDS011;4306;50.210;10.628;2023-02-10T13:12:03;52.78;;;26.88;;
8536;SDS011;4306;50.210;10.628;2023-02-10T13:14:38;46.70;;;25.23;;
8536;SDS011;4306;50.210;10.628;2023-02-10T13:17:07;46.00;;;26.00;;
8536;SDS011;4306;50.210;10.628;2023-02-10T13:19:39;48.43;;;24.73;;
8536;SDS011;4306;50.210;10.628;2023-02-10T13:22:13;49.53;;;25.40;;
8536;SDS011;4306;50.210;10.628;2023-02-10T13:24:47;45.30;;;25.23;;
8536;SDS011;4306;50.210;10.628;2023-02-10T13:27:25;44.10;;;25.07;;
8536;SDS011;4306;50.210;10.628;2023-02-10T13:30:02;48.33;;;27.07;;
8536;SDS011;4306;50.210;10.628;2023-02-10T13:32:44;45.87;;;25.30;;
8536;SDS011;4306;50.210;10.628;2023-02-10T13:35:19;54.13;;;27.53;;
8536;SDS011;4306;50.210;10.628;2023-02-10T13:37:48;46.40;;;26.23;;
8536;SDS011;4306;50.210;10.628;2023-02-10T13:40:17;55.73;;;26.90;;
8536;SDS011;4306;50.210;10.628;2023-02-10T13:42:47;55.20;;;29.93;;
8536;SDS011;4306;50.210;10.628;2023-02-10T13:45:19;48.17;;;26.20;;
8536;SDS011;4306;50.210;10.628;2023-02-10T13:47:48;44.22;;;25.92;;
8536;SDS011;4306;50.210;10.628;2023-02-10T13:50:21;46.67;;;26.53;;
8536;SDS011;4306;50.210;10.628;2023-02-10T13:52:53;45.70;;;25.58;;
8536;SDS011;4306;50.210;10.628;2023-02-10T13:55:27;72.57;;;38.30;;
8536;SDS011;4306;50.210;10.628;2023-02-10T13:58:16;46.63;;;25.83;;
8536;SDS011;4306;50.210;10.628;2023-02-10T14:00:54;48.07;;;28.53;;
8536;SDS011;4306;50.210;10.628;2023-02-10T14:03:22;54.33;;;27.48;;
8536;SDS011;4306;50.210;10.628;2023-02-10T14:05:53;59.43;;;38.77;;
8536;SDS011;4306;50.210;10.628;2023-02-10T14:08:27;71.13;;;42.23;;
8536;SDS011;4306;50.210;10.628;2023-02-10T14:10:56;58.73;;;33.97;;
8536;SDS011;4306;50.210;10.628;2023-02-10T14:13:25;47.78;;;28.48;;
8536;SDS011;4306;50.210;10.628;2023-02-10T14:15:58;52.27;;;28.33;;
8536;SDS011;4306;50.210;10.628;2023-02-10T14:18:27;50.10;;;27.60;;
8536;SDS011;4306;50.210;10.628;2023-02-10T14:20:58;45.88;;;26.35;;
8536;SDS011;4306;50.210;10.628;2023-02-10T14:23:27;51.60;;;28.17;;
8536;SDS011;4306;50.210;10.628;2023-02-10T14:25:57;48.70;;;25.50;;
8536;SDS011;4306;50.210;10.628;2023-02-10T14:28:27;42.10;;;23.97;;
8536;SDS011;4306;50.210;10.628;2023-02-10T14:30:59;47.10;;;25.55;;
8536;SDS011;4306;50.210;10.628;2023-02-10T14:33:28;48.67;;;25.10;;
8536;SDS011;4306;50.210;10.628;2023-02-10T14:35:56;42.25;;;24.40;;
8536;SDS011;4306;50.210;10.628;2023-02-10T14:38:27;45.03;;;25.87;;
8536;SDS011;4306;50.210;10.628;2023-02-10T14:40:56;59.67;;;30.87;;
8536;SDS011;4306;50.210;10.628;2023-02-10T14:43:25;54.77;;;30.87;;
8536;SDS011;4306;50.210;10.628;2023-02-10T14:45:54;51.80;;;27.23;;
8536;SDS011;4306;50.210;10.628;2023-02-10T14:48:23;46.37;;;26.13;;
8536;SDS011;4306;50.210;10.628;2023-02-10T14:53:46;48.10;;;26.90;;
8536;SDS011;4306;50.210;10.628;2023-02-10T14:56:14;51.97;;;28.87;;
8536;SDS011;4306;50.210;10.628;2023-02-10T14:58:43;45.23;;;26.17;;
8536;SDS011;4306;50.210;10.628;2023-02-10T15:01:13;47.97;;;25.58;;